Time;durP1;ratioP1;P1;durP2;ratioP2;P2;SDS_P1;SDS_P2;PMS_P1;PMS_P2;Temp;Humidity;BMP_temperature;BMP_pressure;BME280_temperature;BME280_humidity;BME280_pressure;Samples;Min_cycle;Max_cycle;Signal;HPM_P1;HPM_P2
2023/04/13 00:00:40;;;;;;;5.40;0.43;;;6.50;71.20;;;;;;5022435;28;20025;-75
2023/04/13 00:03:10;;;;;;;1.33;0.50;;;6.60;60.10;;;;;;5022660;28;20045;-72
2023/04/13 00:05:40;;;;;;;1.95;0.80;;;6.70;50.30;;;;;;5031435;28;20036;-73
2023/04/13 00:08:07;;;;;;;0.98;0.57;;;6.60;45.80;;;;;;5030814;28;20386;-73
2023/04/13 00:10:39;;;;;;;2.38;0.40;;;6.60;45.20;;;;;;5029827;28;20041;-73
2023/04/13 00:13:08;;;;;;;0.88;0.40;;;6.60;38.50;;;;;;5028156;28;20034;-73
2023/04/13 00:15:36;;;;;;;0.98;0.30;;;6.60;39.90;;;;;;5032415;28;20029;-73
2023/04/13 00:18:04;;;;;;;2.13;0.50;;;6.70;53.10;;;;;;5031526;28;20033;-73
2023/04/13 00:20:30;;;;;;;1.70;0.60;;;6.60;76.70;;;;;;5029597;28;20029;-73
2023/04/13 00:22:56;;;;;;;3.65;0.60;;;6.50;85.00;;;;;;5031382;28;20029;-73
2023/04/13 00:25:22;;;;;;;1.25;0.68;;;6.40;60.00;;;;;;5028600;28;20061;-73
2023/04/13 00:27:51;;;;;;;1.35;0.50;;;6.40;58.50;;;;;;5029770;28;20036;-74
2023/04/13 00:30:19;;;;;;;1.60;0.80;;;6.40;40.90;;;;;;5028413;28;20046;-73
2023/04/13 00:32:45;;;;;;;3.30;0.70;;;6.30;69.90;;;;;;5022572;28;20060;-73
2023/04/13 00:35:18;;;;;;;2.10;0.60;;;6.20;99.90;;;;;;5030938;28;20036;-74
2023/04/13 00:37:47;;;;;;;2.25;0.65;;;6.10;99.90;;;;;;5028711;28;20095;-74
2023/04/13 00:40:15;;;;;;;1.60;0.50;;;6.00;99.90;;;;;;5020304;28;20052;-74
2023/04/13 00:42:46;;;;;;;1.58;0.50;;;5.90;99.90;;;;;;5026626;28;20054;-73
2023/04/13 00:45:13;;;;;;;1.90;0.50;;;5.70;99.90;;;;;;5028914;28;20617;-74
2023/04/13 00:47:42;;;;;;;1.50;0.60;;;5.70;99.90;;;;;;5030627;28;20029;-74
2023/04/13 00:50:08;;;;;;;2.72;0.77;;;5.70;99.90;;;;;;5029751;28;20351;-74
2023/04/13 00:52:38;;;;;;;2.80;0.90;;;5.70;99.90;;;;;;5031688;28;20494;-74
2023/04/13 00:55:05;;;;;;;3.20;1.02;;;5.60;99.90;;;;;;5030993;28;20470;-74
2023/04/13 00:57:32;;;;;;;4.88;1.13;;;5.60;99.90;;;;;;5031390;28;20034;-74
2023/04/13 01:00:05;;;;;;;4.72;1.40;;;5.60;99.90;;;;;;5037128;28;20053;-74
2023/04/13 01:02:31;;;;;;;5.03;1.75;;;5.50;99.90;;;;;;5029765;28;20399;-74
2023/04/13 01:04:57;;;;;;;3.95;1.75;;;5.50;99.90;;;;;;5030360;28;20484;-75
2023/04/13 01:07:46;;;;;;;5.95;2.17;;;5.50;99.90;;;;;;5030396;28;20025;-73
2023/04/13 01:10:28;;;;;;;6.28;1.80;;;5.50;99.90;;;;;;5038355;28;20053;-73
2023/04/13 01:13:11;;;;;;;6.82;1.83;;;5.50;99.90;;;;;;5031441;28;20387;-82
2023/04/13 01:15:52;;;;;;;5.93;1.98;;;5.40;99.90;;;;;;5022766;28;20041;-74
2023/04/13 01:18:19;;;;;;;5.45;1.63;;;5.30;99.90;;;;;;5029884;28;20033;-74
2023/04/13 01:20:47;;;;;;;5.18;1.85;;;5.30;99.90;;;;;;5032625;28;20044;-74
2023/04/13 01:23:27;;;;;;;4.93;1.73;;;5.30;99.90;;;;;;5025020;28;20275;-73
2023/04/13 01:26:00;;;;;;;5.30;1.85;;;5.30;99.90;;;;;;5033475;28;20038;-73
2023/04/13 01:28:27;;;;;;;3.85;1.35;;;5.30;99.90;;;;;;5027438;28;20056;-74
2023/04/13 01:30:56;;;;;;;5.70;1.75;;;5.30;99.90;;;;;;5024255;28;20038;-73
2023/04/13 01:33:24;;;;;;;5.68;1.73;;;5.30;99.90;;;;;;5018903;28;20046;-74
2023/04/13 01:35:51;;;;;;;7.60;1.92;;;5.20;99.90;;;;;;5024322;28;20124;-73
2023/04/13 01:38:25;;;;;;;4.40;1.52;;;5.30;99.90;;;;;;5026628;28;20053;-73
2023/04/13 01:40:53;;;;;;;5.18;2.08;;;5.30;99.90;;;;;;5029914;28;20371;-74
2023/04/13 01:43:20;;;;;;;5.78;1.95;;;5.30;99.90;;;;;;5028048;28;20054;-74
2023/04/13 01:46:21;;;;;;;8.93;2.97;;;5.30;99.90;;;;;;5033841;28;20037;-74
2023/04/13 01:48:56;;;;;;;6.13;2.00;;;5.50;99.90;;;;;;5044576;28;20482;-74
2023/04/13 01:51:47;;;;;;;6.10;1.60;;;5.50;99.90;;;;;;5038824;28;20054;-73
2023/04/13 01:54:21;;;;;;;3.85;1.48;;;5.60;99.90;;;;;;5028679;28;20042;-73
2023/04/13 01:56:49;;;;;;;6.07;2.35;;;5.70;99.90;;;;;;5029886;28;20046;-74
2023/04/13 01:59:16;;;;;;;3.15;1.70;;;5.80;99.90;;;;;;5023156;28;20050;-74
2023/04/13 02:01:43;;;;;;;6.47;1.25;;;5.80;99.90;;;;;;5031278;28;20053;-74
2023/04/13 02:04:09;;;;;;;3.00;1.30;;;5.70;99.90;;;;;;5027193;28;20041;-74
2023/04/13 02:06:38;;;;;;;6.65;1.77;;;5.80;99.90;;;;;;5031964;28;20050;-74
2023/04/13 02:09:06;;;;;;;5.25;1.17;;;5.80;93.10;;;;;;5030430;28;20037;-74
2023/04/13 02:11:34;;;;;;;5.60;1.10;;;5.90;88.10;;;;;;5027953;28;20045;-74
2023/04/13 02:14:05;;;;;;;5.15;1.00;;;6.00;28.10;;;;;;5017021;28;20042;-74
2023/04/13 02:16:31;;;;;;;4.35;1.27;;;6.10;1.00;;;;;;5036719;28;20037;-74
2023/04/13 02:18:58;;;;;;;3.38;0.70;;;6.20;1.00;;;;;;5022201;28;20041;-74
2023/04/13 02:21:25;;;;;;;3.22;0.90;;;6.20;3.90;;;;;;5025427;28;20042;-74
2023/04/13 02:23:51;;;;;;;2.88;0.93;;;6.20;10.80;;;;;;5033600;28;20049;-74
2023/04/13 02:26:18;;;;;;;3.75;0.88;;;6.20;10.20;;;;;;5028181;28;20042;-74
2023/04/13 02:28:45;;;;;;;2.97;1.42;;;6.20;20.40;;;;;;5028404;28;20053;-74
2023/04/13 02:31:15;;;;;;;2.28;0.68;;;6.20;2.50;;;;;;5032150;28;20056;-74
2023/04/13 02:33:43;;;;;;;4.00;1.15;;;6.20;1.00;;;;;;5033017;28;20053;-74
2023/04/13 02:36:10;;;;;;;2.00;0.60;;;6.30;1.00;;;;;;5033159;28;20041;-74
2023/04/13 02:38:43;;;;;;;3.10;0.40;;;6.30;1.00;;;;;;5026835;28;20105;-74
2023/04/13 02:41:21;;;;;;;2.90;0.60;;;6.40;1.00;;;;;;5030399;28;20053;-74
2023/04/13 02:43:51;;;;;;;3.75;0.65;;;6.30;1.00;;;;;;5028429;28;20382;-74
2023/04/13 02:46:20;;;;;;;4.10;0.90;;;6.40;1.00;;;;;;5041109;28;20585;-74
2023/04/13 02:48:48;;;;;;;2.33;0.65;;;6.40;1.00;;;;;;5043471;28;20042;-74
2023/04/13 02:51:14;;;;;;;2.88;1.13;;;6.40;1.00;;;;;;5044426;28;20046;-74
2023/04/13 02:53:42;;;;;;;2.38;0.90;;;6.40;1.00;;;;;;5027180;28;20038;-74
2023/04/13 02:56:09;;;;;;;2.47;0.90;;;6.40;1.00;;;;;;5030619;28;20387;-74
2023/04/13 02:58:36;;;;;;;4.43;1.25;;;6.50;1.00;;;;;;5032796;28;20052;-74
2023/04/13 03:01:10;;;;;;;4.13;0.98;;;6.50;1.00;;;;;;5029132;28;20101;-74
2023/04/13 03:03:37;;;;;;;9.80;0.90;;;6.50;1.00;;;;;;5031796;28;20041;-74
2023/04/13 03:06:03;;;;;;;3.55;0.82;;;6.50;1.00;;;;;;5033282;28;20038;-74
2023/04/13 03:08:42;;;;;;;4.20;0.90;;;6.50;1.00;;;;;;5034422;28;20045;-74
2023/04/13 03:11:15;;;;;;;4.18;0.82;;;6.60;1.00;;;;;;5029496;28;20049;-75
2023/04/13 03:13:52;;;;;;;4.55;1.17;;;6.60;1.00;;;;;;5032348;28;20053;-74
2023/04/13 03:16:19;;;;;;;4.28;0.98;;;6.60;1.00;;;;;;5040737;28;20364;-74
2023/04/13 03:18:46;;;;;;;6.60;0.90;;;6.60;1.00;;;;;;5029723;28;20395;-74
2023/04/13 03:21:13;;;;;;;4.45;1.40;;;6.60;1.00;;;;;;5032918;28;20072;-74
2023/04/13 03:23:51;;;;;;;4.32;0.98;;;6.60;1.00;;;;;;5039163;28;20067;-74
2023/04/13 03:26:17;;;;;;;2.42;0.88;;;6.60;1.00;;;;;;5028199;28;20041;-74
2023/04/13 03:28:43;;;;;;;5.60;1.48;;;6.60;1.00;;;;;;5025419;28;20041;-73
2023/04/13 03:31:10;;;;;;;3.45;1.02;;;6.60;1.00;;;;;;5026852;28;20478;-75
2023/04/13 03:33:37;;;;;;;3.17;1.15;;;6.70;1.00;;;;;;5030820;28;20402;-74
2023/04/13 03:36:07;;;;;;;6.82;1.52;;;6.70;1.00;;;;;;5027079;28;20052;-75
2023/04/13 03:38:36;;;;;;;10.23;1.27;;;6.70;1.00;;;;;;5025145;28;20048;-75
2023/04/13 03:41:02;;;;;;;1.80;0.90;;;6.70;1.00;;;;;;5036623;28;20482;-75
2023/04/13 03:43:30;;;;;;;4.25;1.25;;;6.70;1.00;;;;;;5035995;28;20046;-74
2023/04/13 03:46:04;;;;;;;4.20;0.73;;;6.70;1.00;;;;;;5035915;28;20048;-74
2023/04/13 03:48:31;;;;;;;2.90;0.75;;;6.70;1.00;;;;;;5021880;28;20368;-74
2023/04/13 03:51:00;;;;;;;5.75;0.90;;;6.70;1.00;;;;;;5022568;28;20046;-84
2023/04/13 03:53:35;;;;;;;5.45;0.82;;;6.70;1.00;;;;;;5024141;28;20495;-74
2023/04/13 03:56:01;;;;;;;5.80;1.77;;;6.70;1.00;;;;;;5022606;28;20053;-74
2023/04/13 03:58:30;;;;;;;2.85;0.60;;;6.70;1.00;;;;;;5024216;28;20030;-73
2023/04/13 04:00:57;;;;;;;3.53;0.77;;;6.70;1.00;;;;;;5027085;28;20045;-75
2023/04/13 04:03:37;;;;;;;4.28;0.70;;;6.80;1.00;;;;;;5018440;28;20439;-73
2023/04/13 04:06:07;;;;;;;2.30;0.57;;;6.80;1.00;;;;;;5029867;28;20049;-75
2023/04/13 04:08:34;;;;;;;2.97;0.90;;;6.80;1.00;;;;;;5024671;28;20050;-74
2023/04/13 04:11:05;;;;;;;2.40;0.60;;;6.80;1.00;;;;;;5028033;28;20399;-74
2023/04/13 04:13:32;;;;;;;5.20;0.82;;;6.80;1.00;;;;;;5024246;28;20073;-76
2023/04/13 04:16:05;;;;;;;1.67;0.43;;;6.80;1.00;;;;;;5025000;28;20046;-74
2023/04/13 04:18:33;;;;;;;3.33;0.75;;;6.80;1.00;;;;;;5027960;28;20399;-74
2023/04/13 04:21:03;;;;;;;3.08;0.55;;;6.90;1.00;;;;;;5032479;28;20040;-74
2023/04/13 04:23:33;;;;;;;2.33;0.50;;;6.90;1.00;;;;;;5025835;28;20041;-74
2023/04/13 04:26:04;;;;;;;4.90;1.00;;;6.80;1.00;;;;;;5028452;28;20033;-74
2023/04/13 04:28:40;;;;;;;4.75;1.35;;;6.90;1.00;;;;;;5028496;28;20399;-74
2023/04/13 04:31:10;;;;;;;1.88;0.75;;;6.90;1.00;;;;;;5041245;28;20057;-74
2023/04/13 04:33:38;;;;;;;5.13;1.15;;;6.90;1.00;;;;;;5025154;28;20837;-76
2023/04/13 04:36:13;;;;;;;2.30;0.70;;;6.90;1.00;;;;;;5024796;28;20394;-74
2023/04/13 04:38:48;;;;;;;10.70;0.88;;;6.90;1.00;;;;;;5031525;28;20076;-74
2023/04/13 04:41:19;;;;;;;5.45;0.70;;;7.00;1.00;;;;;;5029073;28;20418;-74
2023/04/13 04:43:48;;;;;;;2.80;0.95;;;7.00;1.00;;;;;;5029386;28;20486;-74
2023/04/13 04:46:15;;;;;;;7.10;0.80;;;7.00;1.00;;;;;;5026305;28;20046;-75
2023/04/13 04:48:49;;;;;;;4.18;0.98;;;7.00;1.00;;;;;;5042738;28;20037;-74
2023/04/13 04:51:16;;;;;;;3.97;1.65;;;7.00;1.00;;;;;;5030676;28;20056;-74
2023/04/13 04:53:43;;;;;;;3.35;0.65;;;7.00;1.00;;;;;;5028869;28;20053;-75
2023/04/13 04:56:10;;;;;;;5.40;1.35;;;7.10;1.00;;;;;;5025964;28;20211;-74
2023/04/13 04:58:43;;;;;;;4.13;1.10;;;7.10;1.00;;;;;;5031672;28;20049;-74
2023/04/13 05:01:09;;;;;;;5.45;0.82;;;7.20;99.90;;;;;;5030710;28;20045;-74
2023/04/13 05:03:36;;;;;;;5.88;1.10;;;7.20;99.90;;;;;;5025538;28;20045;-77
2023/04/13 05:06:16;;;;;;;8.30;1.08;;;7.20;99.90;;;;;;5022308;28;20053;-74
2023/04/13 05:08:43;;;;;;;4.40;1.08;;;7.20;99.90;;;;;;5029677;28;20045;-74
2023/04/13 05:11:10;;;;;;;8.75;0.93;;;7.20;99.90;;;;;;5025934;28;20053;-74
2023/04/13 05:13:37;;;;;;;2.90;0.63;;;7.20;99.90;;;;;;5024613;28;20521;-74
2023/04/13 05:16:12;;;;;;;8.68;1.20;;;7.20;99.90;;;;;;5020657;28;20394;-74
2023/04/13 05:18:44;;;;;;;2.83;0.98;;;7.20;99.90;;;;;;5024339;28;20052;-74
2023/04/13 05:21:15;;;;;;;3.63;1.23;;;7.20;99.90;;;;;;5021777;28;20107;-74
2023/04/13 05:23:44;;;;;;;5.85;1.23;;;7.20;99.90;;;;;;5037005;28;20041;-74
2023/04/13 05:26:11;;;;;;;4.50;1.00;;;7.20;99.90;;;;;;5028280;28;20045;-74
2023/04/13 05:28:38;;;;;;;4.78;1.13;;;7.30;99.90;;;;;;5026491;28;20030;-73
2023/04/13 05:31:06;;;;;;;5.55;1.08;;;7.40;99.90;;;;;;5026459;28;20056;-84
2023/04/13 05:33:35;;;;;;;3.80;0.95;;;7.40;99.90;;;;;;5028670;28;20044;-74
2023/04/13 05:36:03;;;;;;;5.20;1.13;;;7.50;99.90;;;;;;5031133;28;20474;-74
2023/04/13 05:38:30;;;;;;;6.72;0.93;;;7.50;99.90;;;;;;5031009;28;20038;-74
2023/04/13 05:40:57;;;;;;;8.35;0.98;;;7.60;99.90;;;;;;5026764;28;20038;-74
2023/04/13 05:43:24;;;;;;;4.05;0.93;;;7.70;99.90;;;;;;5023489;28;20053;-74
2023/04/13 05:45:53;;;;;;;6.20;1.40;;;7.70;99.90;;;;;;5045927;28;20045;-74
2023/04/13 05:48:21;;;;;;;4.30;0.90;;;7.70;99.90;;;;;;5025841;28;20046;-75
2023/04/13 05:50:49;;;;;;;4.80;1.30;;;7.80;99.90;;;;;;5024233;28;20046;-74
2023/04/13 05:53:15;;;;;;;6.32;1.13;;;7.80;99.90;;;;;;5021130;28;20042;-76
2023/04/13 05:55:47;;;;;;;5.03;0.88;;;7.80;99.90;;;;;;5026816;28;20048;-74
2023/04/13 05:58:14;;;;;;;3.65;1.08;;;7.80;99.90;;;;;;5026130;28;20502;-74
2023/04/13 06:00:41;;;;;;;6.72;1.10;;;7.80;99.90;;;;;;5034344;28;20510;-74
2023/04/13 06:03:11;;;;;;;5.28;0.82;;;7.90;99.90;;;;;;5021958;28;20394;-75
2023/04/13 06:05:38;;;;;;;6.05;0.98;;;7.80;99.90;;;;;;5032855;28;20045;-74
2023/04/13 06:08:04;;;;;;;5.80;1.05;;;7.90;99.90;;;;;;5042839;28;20045;-73
2023/04/13 06:10:30;;;;;;;4.07;0.98;;;8.00;99.90;;;;;;5027907;28;20049;-73
2023/04/13 06:12:57;;;;;;;5.13;1.13;;;8.10;99.90;;;;;;5034582;28;20049;-73
2023/04/13 06:15:24;;;;;;;4.20;1.33;;;8.30;99.90;;;;;;5032433;28;20030;-74
2023/04/13 06:17:51;;;;;;;6.60;1.13;;;8.40;99.90;;;;;;5029667;28;20494;-74
2023/04/13 06:20:20;;;;;;;5.55;0.85;;;8.50;99.90;;;;;;5032427;28;20056;-74
2023/04/13 06:22:46;;;;;;;9.85;1.73;;;8.50;99.90;;;;;;5034160;28;20077;-74
2023/04/13 06:25:13;;;;;;;2.65;0.80;;;8.40;99.90;;;;;;5027221;28;20048;-74
2023/04/13 06:27:42;;;;;;;11.27;2.22;;;8.40;99.90;;;;;;5024618;28;20053;-74
2023/04/13 06:30:12;;;;;;;5.32;2.05;;;8.40;99.90;;;;;;5028715;28;20049;-73
2023/04/13 06:32:39;;;;;;;9.63;1.83;;;8.30;99.90;;;;;;5042222;28;20052;-74
2023/04/13 06:35:05;;;;;;;3.35;0.90;;;8.30;99.90;;;;;;5027325;28;20033;-74
2023/04/13 06:37:38;;;;;;;4.50;1.23;;;8.40;99.90;;;;;;5032307;28;20036;-74
2023/04/13 06:40:14;;;;;;;7.82;1.15;;;8.30;99.90;;;;;;5027493;28;20049;-75
2023/04/13 06:42:47;;;;;;;8.90;1.45;;;8.30;99.90;;;;;;5032708;28;20045;-74
2023/04/13 06:45:26;;;;;;;5.53;1.08;;;8.20;99.90;;;;;;5031801;28;20049;-74
2023/04/13 06:47:53;;;;;;;5.68;1.42;;;8.20;99.90;;;;;;5032681;28;20045;-74
2023/04/13 06:50:20;;;;;;;7.07;1.67;;;8.20;99.90;;;;;;5027500;28;20056;-74
2023/04/13 06:52:47;;;;;;;5.63;1.48;;;8.40;99.90;;;;;;5037709;28;20045;-74
2023/04/13 06:55:16;;;;;;;7.05;1.30;;;8.40;99.90;;;;;;5030613;28;20037;-74
2023/04/13 06:57:42;;;;;;;6.15;1.15;;;8.50;99.90;;;;;;5031687;28;20045;-75
2023/04/13 07:00:09;;;;;;;5.35;1.33;;;8.60;99.90;;;;;;5033231;28;20507;-75
2023/04/13 07:02:36;;;;;;;5.22;1.30;;;8.70;99.90;;;;;;5030746;28;20046;-74
2023/04/13 07:05:05;;;;;;;8.20;2.00;;;8.70;99.90;;;;;;5032349;28;20045;-75
2023/04/13 07:07:32;;;;;;;8.55;1.67;;;8.60;99.90;;;;;;5032468;28;20486;-75
2023/04/13 07:09:58;;;;;;;6.25;1.45;;;8.60;99.90;;;;;;5028524;28;20057;-74
2023/04/13 07:12:25;;;;;;;11.25;2.03;;;8.50;99.90;;;;;;5037364;28;20029;-74
2023/04/13 07:14:51;;;;;;;5.53;1.20;;;8.50;99.90;;;;;;5015497;28;20037;-75
2023/04/13 07:17:20;;;;;;;10.45;2.47;;;8.50;99.90;;;;;;5031959;28;20045;-75
2023/04/13 07:19:48;;;;;;;8.32;1.63;;;8.40;99.90;;;;;;5038347;28;20042;-74
2023/04/13 07:22:15;;;;;;;10.32;2.90;;;8.40;99.90;;;;;;5029926;28;20502;-74
2023/04/13 07:24:42;;;;;;;10.35;2.45;;;8.40;99.90;;;;;;5031971;28;20049;-75
2023/04/13 07:27:13;;;;;;;7.35;1.85;;;8.40;99.90;;;;;;5025667;28;20045;-74
2023/04/13 07:29:39;;;;;;;7.68;2.30;;;8.30;99.90;;;;;;5032362;28;20478;-74
2023/04/13 07:32:10;;;;;;;8.55;2.13;;;8.20;99.90;;;;;;5031004;28;20047;-76
2023/04/13 07:34:37;;;;;;;10.55;2.08;;;8.20;99.90;;;;;;5010173;28;20475;-75
2023/04/13 07:37:03;;;;;;;7.78;2.47;;;8.30;99.90;;;;;;5027593;28;20037;-75
2023/04/13 07:39:31;;;;;;;10.00;1.95;;;8.30;99.90;;;;;;5032376;28;20497;-74
2023/04/13 07:41:58;;;;;;;9.88;1.50;;;8.30;99.90;;;;;;5032118;28;20056;-75
2023/04/13 07:44:36;;;;;;;10.35;1.98;;;8.20;99.90;;;;;;5025687;28;20037;-74
2023/04/13 07:47:03;;;;;;;8.18;1.73;;;8.20;99.90;;;;;;5023596;28;20481;-74
2023/04/13 07:49:31;;;;;;;8.05;1.92;;;8.20;99.90;;;;;;5021526;28;20038;-74
2023/04/13 07:51:59;;;;;;;10.40;2.80;;;8.20;99.90;;;;;;5032075;28;20387;-75
2023/04/13 07:54:28;;;;;;;11.85;2.25;;;8.20;99.90;;;;;;5025656;28;20045;-74
2023/04/13 07:56:55;;;;;;;9.60;1.98;;;8.20;99.90;;;;;;5032713;28;20046;-75
2023/04/13 07:59:25;;;;;;;7.82;2.97;;;8.30;99.90;;;;;;5030686;28;20045;-74
2023/04/13 08:01:52;;;;;;;6.63;1.92;;;8.30;99.90;;;;;;5027752;28;20045;-75
2023/04/13 08:04:18;;;;;;;12.13;2.65;;;8.40;99.90;;;;;;5027457;28;20042;-75
2023/04/13 08:06:45;;;;;;;12.15;2.40;;;8.50;99.90;;;;;;5026413;28;20121;-75
2023/04/13 08:09:12;;;;;;;6.90;1.52;;;8.70;99.90;;;;;;5026112;28;20497;-75
2023/04/13 08:11:38;;;;;;;5.28;1.95;;;8.60;99.90;;;;;;5041212;28;20506;-73
2023/04/13 08:14:08;;;;;;;10.77;2.05;;;8.60;99.90;;;;;;5045214;28;20049;-73
2023/04/13 08:16:36;;;;;;;9.40;1.70;;;8.60;99.90;;;;;;5045090;28;20060;-73
2023/04/13 08:19:06;;;;;;;5.05;1.75;;;8.60;99.90;;;;;;5024049;28;20041;-72
2023/04/13 08:21:37;;;;;;;8.82;2.15;;;8.60;99.90;;;;;;5021439;28;20049;-73
2023/04/13 08:24:05;;;;;;;12.30;1.98;;;8.70;99.90;;;;;;5030633;28;20053;-73
2023/04/13 08:26:31;;;;;;;14.77;4.55;;;8.70;99.90;;;;;;5023078;28;20046;-73
2023/04/13 08:29:00;;;;;;;7.95;1.77;;;8.80;99.90;;;;;;5007692;28;20071;-72
2023/04/13 08:31:26;;;;;;;10.85;2.65;;;8.90;99.90;;;;;;5031063;28;20048;-73
2023/04/13 08:34:01;;;;;;;11.50;3.85;;;9.00;99.90;;;;;;5021343;28;20057;-73
2023/04/13 08:36:30;;;;;;;11.88;3.13;;;9.10;99.90;;;;;;5028129;28;20048;-73
2023/04/13 08:39:04;;;;;;;9.27;2.83;;;9.10;99.90;;;;;;5045076;28;20053;-73
2023/04/13 08:41:32;;;;;;;7.20;1.40;;;9.40;99.90;;;;;;5027747;28;20467;-74
2023/04/13 08:44:04;;;;;;;8.75;2.95;;;9.70;99.90;;;;;;5022852;28;20092;-73
2023/04/13 08:46:31;;;;;;;11.25;3.70;;;10.20;99.90;;;;;;5018112;28;20497;-73
2023/04/13 08:48:58;;;;;;;6.55;2.05;;;10.80;99.90;;;;;;5036365;28;20038;-74
2023/04/13 08:51:33;;;;;;;10.57;1.50;;;11.20;90.40;;;;;;5035122;28;20054;-74
2023/04/13 08:53:59;;;;;;;7.03;1.85;;;10.90;48.60;;;;;;5031325;28;20057;-74
2023/04/13 08:56:32;;;;;;;9.40;2.95;;;10.60;90.40;;;;;;5037249;28;20510;-74
2023/04/13 08:59:02;;;;;;;11.20;3.65;;;11.20;81.30;;;;;;5030760;28;20041;-74
2023/04/13 09:01:30;;;;;;;8.05;3.15;;;11.20;51.40;;;;;;5036135;28;20053;-74
2023/04/13 09:04:01;;;;;;;7.03;2.13;;;11.10;63.90;;;;;;5019689;28;20041;-73
2023/04/13 09:06:34;;;;;;;5.18;1.65;;;10.60;58.10;;;;;;5022138;28;20042;-73
2023/04/13 09:09:06;;;;;;;11.95;3.67;;;10.40;74.30;;;;;;5025185;28;20049;-74
2023/04/13 09:11:32;;;;;;;8.05;1.83;;;10.10;94.50;;;;;;5028473;28;20383;-74
2023/04/13 09:14:01;;;;;;;10.30;1.45;;;9.90;99.90;;;;;;5017890;28;20049;-74
2023/04/13 09:16:27;;;;;;;5.03;1.30;;;9.90;99.90;;;;;;5026012;28;20399;-73
2023/04/13 09:19:01;;;;;;;5.45;1.00;;;9.90;99.90;;;;;;5028234;28;20395;-74
2023/04/13 09:21:38;;;;;;;9.07;1.88;;;10.00;99.90;;;;;;5030617;28;20045;-73
2023/04/13 09:24:05;;;;;;;7.97;1.38;;;9.80;96.60;;;;;;5029258;28;20040;-73
2023/04/13 09:26:47;;;;;;;6.13;1.60;;;10.00;99.90;;;;;;5029846;28;20051;-73
2023/04/13 09:29:16;;;;;;;6.28;1.60;;;10.00;99.90;;;;;;5029746;28;20034;-76
2023/04/13 09:31:46;;;;;;;6.38;2.22;;;10.10;99.90;;;;;;5028996;28;20045;-74
2023/04/13 09:34:13;;;;;;;7.57;1.63;;;10.10;93.90;;;;;;5028656;28;20033;-73
2023/04/13 09:36:40;;;;;;;7.38;1.02;;;10.10;95.90;;;;;;5032285;28;20030;-73
2023/04/13 09:39:07;;;;;;;3.10;0.90;;;10.00;98.60;;;;;;5035357;28;20045;-73
2023/04/13 09:41:45;;;;;;;3.72;1.17;;;10.00;98.50;;;;;;5034256;28;20061;-73
2023/04/13 09:44:19;;;;;;;5.45;0.88;;;10.00;99.90;;;;;;5033787;28;20049;-72
2023/04/13 09:47:02;;;;;;;5.40;1.08;;;10.10;99.90;;;;;;5031013;28;20042;-73
2023/04/13 09:49:43;;;;;;;8.88;1.13;;;10.10;82.30;;;;;;5041549;28;20383;-72
2023/04/13 09:52:23;;;;;;;3.10;0.70;;;10.20;84.10;;;;;;5035204;28;20044;-73
2023/04/13 09:54:50;;;;;;;6.32;1.33;;;10.10;96.80;;;;;;5029982;28;20378;-72
2023/04/13 09:57:30;;;;;;;6.25;1.08;;;10.00;94.10;;;;;;5029599;28;20033;-73
2023/04/13 09:59:59;;;;;;;5.00;1.00;;;9.80;99.90;;;;;;5034092;28;20092;-75
2023/04/13 10:02:26;;;;;;;5.32;0.88;;;9.60;99.90;;;;;;5033225;28;20033;-74
2023/04/13 10:04:56;;;;;;;3.35;1.08;;;9.80;99.90;;;;;;5032372;28;20041;-73
2023/04/13 10:07:25;;;;;;;3.60;1.30;;;10.00;99.90;;;;;;5032512;28;20109;-74
2023/04/13 10:09:54;;;;;;;4.00;1.08;;;9.90;99.90;;;;;;5032598;28;20386;-75
2023/04/13 10:12:23;;;;;;;2.17;0.60;;;10.00;99.90;;;;;;5031809;28;20064;-74
2023/04/13 10:14:56;;;;;;;1.73;0.50;;;10.20;99.90;;;;;;5032957;28;20045;-75
2023/04/13 10:17:33;;;;;;;2.92;0.60;;;10.50;69.70;;;;;;5033897;28;20033;-74
2023/04/13 10:20:12;;;;;;;4.20;0.75;;;10.70;56.10;;;;;;5034373;28;20394;-74
2023/04/13 10:22:41;;;;;;;2.55;0.50;;;10.80;38.30;;;;;;5031474;28;20392;-74
2023/04/13 10:25:14;;;;;;;5.43;1.00;;;10.70;48.60;;;;;;5028289;28;20048;-72
2023/04/13 10:27:41;;;;;;;3.00;0.90;;;10.60;35.10;;;;;;5034293;28;20033;-75
2023/04/13 10:30:17;;;;;;;2.83;0.77;;;10.60;53.20;;;;;;5043353;28;20029;-72
2023/04/13 10:32:43;;;;;;;3.60;0.85;;;10.70;41.60;;;;;;5027650;28;20395;-78
2023/04/13 10:35:11;;;;;;;3.30;1.10;;;10.50;47.00;;;;;;5032089;28;20202;-73
2023/04/13 10:37:39;;;;;;;5.15;1.20;;;10.40;45.60;;;;;;5032491;28;20041;-74
2023/04/13 10:40:12;;;;;;;4.10;0.82;;;10.40;59.80;;;;;;5033027;28;20041;-73
2023/04/13 10:42:43;;;;;;;1.92;0.68;;;10.60;37.40;;;;;;5031756;28;20446;-73
2023/04/13 10:45:20;;;;;;;4.38;0.88;;;10.50;27.00;;;;;;5033019;28;20042;-74
2023/04/13 10:47:47;;;;;;;5.03;1.52;;;10.60;39.70;;;;;;5027355;28;20029;-74
2023/04/13 10:50:17;;;;;;;1.98;0.60;;;10.50;34.10;;;;;;5034220;28;20042;-74
2023/04/13 10:52:53;;;;;;;;;;;10.50;45.70;;;;;;5033081;28;20045;-74
2023/04/13 10:55:22;;;;;;;2.33;1.00;;;10.50;43.50;;;;;;5032255;28;19909;-74
2023/04/13 10:57:48;;;;;;;3.95;1.20;;;10.70;45.90;;;;;;5032866;28;20407;-74
2023/04/13 11:00:20;;;;;;;4.95;0.90;;;10.90;42.70;;;;;;5029459;28;20029;-76
2023/04/13 11:02:48;;;;;;;4.53;0.90;;;10.90;14.60;;;;;;5026635;28;20467;-75
2023/04/13 11:05:19;;;;;;;3.65;0.75;;;10.90;30.10;;;;;;5031314;28;20037;-74
2023/04/13 11:07:48;;;;;;;3.63;1.00;;;11.10;12.90;;;;;;5032321;28;20391;-73
2023/04/13 11:10:16;;;;;;;4.20;0.82;;;11.10;10.60;;;;;;5032394;28;20038;-74
2023/04/13 11:12:50;;;;;;;4.45;0.80;;;11.00;9.40;;;;;;5030922;28;20041;-74
2023/04/13 11:15:27;;;;;;;2.75;0.88;;;11.00;1.00;;;;;;5032742;28;20033;-74
2023/04/13 11:17:58;;;;;;;6.35;1.30;;;11.20;1.10;;;;;;5033220;28;20033;-74
2023/04/13 11:20:34;;;;;;;3.55;1.00;;;11.50;10.40;;;;;;5029187;28;20037;-75
2023/04/13 11:23:03;;;;;;;1.45;0.70;;;11.90;1.00;;;;;;5020469;28;20499;-80
2023/04/13 11:25:29;;;;;;;2.92;0.82;;;11.80;1.00;;;;;;5026775;28;20033;-75
2023/04/13 11:27:59;;;;;;;4.10;1.20;;;11.60;1.00;;;;;;5033828;28;20037;-77
2023/04/13 11:30:26;;;;;;;4.05;1.08;;;11.90;1.00;;;;;;5032098;28;20041;-75
2023/04/13 11:32:52;;;;;;;3.35;1.00;;;11.90;1.00;;;;;;5029663;28;20120;-75
2023/04/13 11:35:21;;;;;;;4.75;1.02;;;11.90;1.00;;;;;;5030874;28;20034;-75
2023/04/13 11:37:51;;;;;;;6.35;1.58;;;11.50;6.30;;;;;;5027902;28;20025;-75
2023/04/13 11:40:21;;;;;;;5.70;1.23;;;11.50;1.00;;;;;;5032583;28;20395;-75
2023/04/13 11:42:53;;;;;;;3.72;1.15;;;11.30;6.70;;;;;;5032065;28;20050;-75
2023/04/13 11:45:21;;;;;;;3.25;1.40;;;11.20;5.60;;;;;;5023319;28;20076;-75
2023/04/13 11:47:49;;;;;;;3.08;1.20;;;11.40;5.50;;;;;;5027593;28;20032;-75
2023/04/13 11:50:16;;;;;;;4.07;1.77;;;11.50;9.90;;;;;;5030275;28;20030;-75
2023/04/13 11:52:45;;;;;;;3.63;1.10;;;11.70;1.00;;;;;;5028850;28;20033;-75
2023/04/13 11:55:13;;;;;;;3.60;1.10;;;11.70;1.00;;;;;;5026643;28;20040;-75
2023/04/13 11:57:43;;;;;;;1.92;0.73;;;11.80;6.20;;;;;;5029500;28;20038;-74
2023/04/13 12:00:17;;;;;;;3.88;1.13;;;12.30;1.00;;;;;;5029469;28;20034;-75
2023/04/13 12:02:45;;;;;;;4.72;1.77;;;12.20;1.00;;;;;;5030853;28;20120;-75
2023/04/13 12:05:21;;;;;;;5.47;0.88;;;12.40;1.00;;;;;;5028041;28;20489;-75
2023/04/13 12:07:48;;;;;;;4.97;0.70;;;12.80;1.00;;;;;;5030000;28;20025;-76
2023/04/13 12:10:25;;;;;;;3.80;0.93;;;13.00;1.00;;;;;;5032806;28;20034;-75
2023/04/13 12:13:08;;;;;;;3.35;0.90;;;13.10;1.00;;;;;;5026605;28;20045;-80
2023/04/13 12:15:39;;;;;;;1.85;0.50;;;12.90;1.00;;;;;;5026050;28;20041;-75
2023/04/13 12:18:05;;;;;;;3.15;0.80;;;13.00;1.00;;;;;;5031405;28;20500;-75
2023/04/13 12:20:39;;;;;;;2.70;0.80;;;13.20;1.00;;;;;;5030936;28;20037;-75
2023/04/13 12:23:22;;;;;;;2.28;0.65;;;13.20;1.00;;;;;;5030734;28;20044;-75
2023/04/13 12:25:59;;;;;;;5.38;1.13;;;13.00;1.00;;;;;;5029110;28;20387;-75
2023/04/13 12:28:30;;;;;;;3.95;1.10;;;13.40;1.00;;;;;;5018798;28;20041;-76
2023/04/13 12:31:08;;;;;;;;;;;13.70;1.00;;;;;;5026559;28;20025;-75
2023/04/13 12:33:35;;;;;;;7.07;1.48;;;13.70;1.00;;;;;;5030220;28;19913;-75
2023/04/13 12:36:02;;;;;;;4.25;0.88;;;13.30;1.00;;;;;;5032189;28;20499;-75
2023/04/13 12:38:28;;;;;;;4.80;1.15;;;13.80;1.00;;;;;;5028686;28;20036;-75
2023/04/13 12:40:58;;;;;;;4.20;0.90;;;14.20;1.00;;;;;;5029590;28;20025;-75
2023/04/13 12:43:25;;;;;;;3.97;1.30;;;14.10;1.00;;;;;;5027089;28;20034;-74
2023/04/13 12:45:53;;;;;;;3.50;0.93;;;14.10;1.00;;;;;;5023544;28;20041;-75
2023/04/13 12:48:19;;;;;;;4.57;0.95;;;14.20;1.00;;;;;;5030962;28;20041;-75
2023/04/13 12:50:45;;;;;;;5.20;1.00;;;13.60;1.00;;;;;;5030247;28;20034;-75
2023/04/13 12:53:12;;;;;;;3.63;0.57;;;13.30;1.00;;;;;;5025164;28;20038;-75
2023/04/13 12:55:38;;;;;;;7.78;1.50;;;13.50;1.00;;;;;;5022741;28;20029;-76
2023/04/13 12:58:05;;;;;;;3.20;1.27;;;13.40;1.00;;;;;;5031455;28;20037;-75
2023/04/13 13:00:32;;;;;;;4.32;1.15;;;13.50;1.00;;;;;;5021954;28;20033;-74
2023/04/13 13:02:58;;;;;;;4.78;1.10;;;13.10;1.00;;;;;;5029891;28;20034;-75
2023/04/13 13:05:24;;;;;;;3.63;1.33;;;12.70;1.00;;;;;;5028296;28;20667;-84
2023/04/13 13:07:50;;;;;;;3.72;0.65;;;12.10;1.00;;;;;;5032370;28;20045;-74
2023/04/13 13:10:16;;;;;;;2.03;0.93;;;11.00;31.40;;;;;;5030646;28;20554;-75